x

Grays Reef - 40 Nm Southeast Of Savannah, Ga (41008) Wave Buoy

9:50pm - Wed 26th Jul 2017 All times are EDT. -4 hours from GMT.

  • Sig Wave height 2.0ft
  • Swell Direction
  • Peak Period 3s
  • Average Period 4s
  • Wind
    7mph, 9mph gusts
  • Sea Temp 81°f
  • Air Temp 76°f
  • Sea Pressure 1017.7mb
  • Grays Reef - 40 Nm Southeast Of Savannah, Ga
  • Grays Reef - 40 Nm Southeast Of Savannah, Ga

More Historic Weather Station data

Upgrade to MSW Pro to gain access to the past 30 days of data for over 8000 Wavebouys and Weather Stations around the globe.

Join Pro

Comparision Forecast

View Surf forecast
   
Wed 07/26 9:50pm 2ft 3s 4s 7 9 mph 1017.7mb 81f 76f
8:50pm 2ft 3s 4s 7 9 mph 1017.3mb 81f 75f
7:50pm 2ft 4s 4s 9 11 mph 1017.3mb 81f 81f
6:50pm 2.5ft 4s 4s 13 13 mph 1016.8mb 81f 80f
5:50pm 2.5ft 4s 4s 13 16 mph 1017.1mb 81f 80f
4:50pm 2.5ft 5s 4s 11 13 mph 1017.3mb 81f 80f
3:50pm 3ft 6s 4s 11 13 mph 1017.4mb 81f 80f
2:50pm 3.5ft 6s 5s 13 16 mph 1018.3mb 81f 80f
1:50pm 3ft 4s 4s 16 18 mph 1018.5mb 81f 80f
12:50pm 2ft 3s  -  18 20 mph 1019mb 81f 78f
11:50am 1.6ft 10s 4s 18 22 mph 1018.8mb 81f 79f
10:50am 1.6ft 8s 4s 4 4 mph 1018.9mb 81f 81f
9:50am 1.6ft 8s 5s 9 9 mph 1018.8mb 81f 80f
8:50am 1.6ft 8s 5s 4 7 mph 1019mb 81f 80f
7:50am 1.3ft 8s 5s 7 9 mph 1018.5mb 81f 80f
6:50am 1.6ft 8s 5s 7 7 mph 1018.4mb 81f 80f
5:50am 1.6ft 10s 5s 4 4 mph 1017.8mb 81f 80f
4:50am 1.6ft 10s 5s 2 2 mph 1017.6mb 81f 80f
3:50am 1.3ft 10s 5s 2 2 mph 1017.7mb 81f 79f
2:50am 1.3ft 11s 5s 4 4 mph 1017.3mb 81f 79f
1:50am 1.6ft 9s 4s 2 4 mph 1017.6mb 80f 78f
12:50am 1.6ft 10s 4s 2 4 mph 1017.7mb 81f 78f
Tue 07/25 11:50pm 2ft 9s 4s 7 9 mph 1018.1mb 81f 78f
10:50pm 1.6ft 9s 4s 11 13 mph 1018.6mb 81f 80f
9:50pm 2ft 9s 4s 4 7 mph 1017.9mb 81f 82f
8:50pm 2ft 8s 4s 11 13 mph 1017.7mb 81f 82f
7:50pm 2ft 8s 4s 11 13 mph 1017.2mb 81f 82f
6:50pm 2ft 8s 4s 11 13 mph 1017.5mb 82f 82f
5:50pm 2ft 9s 4s 13 16 mph 1017mb 82f 82f
4:50pm 1.6ft 9s 4s 13 16 mph 1016.7mb 82f 82f
3:50pm 1.6ft 9s 4s 13 18 mph 1017.5mb 82f 81f
2:50pm 1.6ft 9s 5s 13 13 mph 1018.1mb 82f 81f
1:50pm 1.6ft 10s 4s 9 11 mph 1018.8mb 82f 81f
12:50pm 2ft 10s 4s 7 7 mph 1018.8mb 81f 82f
11:50am 2.5ft 9s 4s 11 11 mph 1018.7mb 81f 81f
10:50am 2.5ft 3s 4s 11 13 mph 1018.7mb 81f 80f
9:50am 2.5ft 3s 4s 13 13 mph 1018.6mb 81f 80f
8:50am 3ft 4s 4s 16 18 mph 1018.6mb 81f 80f
7:50am 3ft 4s 4s 16 16 mph 1018.2mb 81f 81f
6:50am 3ft 4s 4s 18 20 mph 1017.6mb 80f 80f
5:50am 2.5ft 4s 4s 16 18 mph 1017.1mb 80f 81f
4:50am 3ft 3s 4s 16 18 mph 1016.7mb 80f 81f
3:50am 2.5ft 10s 4s 16 18 mph 1016.4mb 80f 81f
2:50am 2ft 9s 4s 13 18 mph 1016.3mb 80f 81f
1:50am 2.5ft 10s 4s 13 16 mph 1016.4mb 81f 82f
12:50am 2.5ft 9s 4s 11 13 mph 1016.5mb 81f 81f
Mon 07/24 11:50pm 3ft 5s 4s 13 16 mph 1016.1mb 81f 81f
10:50pm 3ft 5s 4s 11 13 mph 1016.1mb 81f 82f
9:50pm 3.5ft 5s 4s 11 13 mph 1016.2mb 81f 81f
8:50pm 3.5ft 4s 4s 16 18 mph 1015.5mb 81f 80f
7:50pm 3.5ft 4s 4s 22 27 mph 1015.2mb 81f 82f
6:50pm 3ft 8s 4s 18 22 mph 1014.5mb 81f 82f
5:50pm 3ft 9s 4s 18 22 mph 1014.2mb 81f 82f
4:50pm 2.5ft 9s 4s 18 22 mph 1014.4mb 81f 82f
3:50pm 2.5ft 9s 4s 18 20 mph 1014.6mb 81f 81f
2:50pm 2.5ft 9s 4s 18 20 mph 1015.6mb 81f 81f
1:50pm 2.5ft 10s 4s 13 18 mph 1016.1mb 81f 80f
12:50pm 2.5ft 5s 4s 16 18 mph 1016.3mb 81f 80f
11:50am 3ft 5s 4s 13 13 mph 1016.1mb 81f 81f
10:50am 3ft 5s 4s 13 16 mph 1016.1mb 81f 80f
9:50am 3ft 5s 4s 18 20 mph 1015.8mb 81f 80f
8:50am 3ft 5s 4s 20 22 mph 1015.6mb 81f 80f
7:50am 3.5ft 5s 4s 18 20 mph 1015.4mb 80f 80f
6:50am 3.5ft 5s 4s 18 20 mph 1014.9mb 80f 80f
5:50am 3.5ft 5s 4s 20 25 mph 1014.6mb 81f 80f
4:50am 3.5ft 5s 4s 20 25 mph 1014.2mb 81f 80f
3:50am 3.5ft 5s 4s 20 25 mph 1013.7mb 81f 80f
2:50am 3.5ft 5s 4s 20 25 mph 1013.8mb 81f 80f
1:50am 3ft 4s 4s 18 22 mph 1014.4mb 81f 80f
12:50am 2.5ft 5s 4s 18 20 mph 1014.6mb 81f 81f
Sun 07/23 11:50pm 2.5ft 5s 4s 18 22 mph 1014.6mb 81f 81f
10:50pm 2.5ft 5s 4s 16 16 mph 1014.7mb 81f 80f
9:50pm 3ft 4s 4s 16 18 mph 1014.3mb 81f 80f
8:50pm 3.5ft 5s 4s 18 20 mph 1013.5mb 81f 80f
7:50pm 3.5ft 5s 4s 18 20 mph 1012.8mb 81f 80f
6:50pm 3.5ft 5s 4s 20 22 mph 1012.6mb 82f 80f
5:50pm 3.5ft 4s 4s 18 20 mph 1013.2mb 82f 80f
4:50pm 3.5ft 4s 4s 20 25 mph 1013.6mb 82f 80f
3:50pm 3.5ft 4s 4s 25 29 mph 1013.7mb 82f 79f
2:50pm 2.5ft 10s 4s 27 31 mph 1015.2mb 82f 81f
1:50pm 2.5ft 10s 4s 16 20 mph 1015.3mb 82f 81f
12:50pm 2.5ft 9s 4s 13 16 mph 1015.9mb 82f 80f
11:50am 2.5ft 10s 4s 13 16 mph 1015.3mb 82f 80f
10:50am 2.5ft 9s 4s 16 18 mph 1015.3mb 81f 80f
9:50am 3ft 4s 4s 11 13 mph 1015.8mb 80f 79f
8:50am 3ft 9s 4s 13 16 mph 1016mb 80f 79f
7:50am 3ft 5s 4s 16 18 mph 1015.7mb 80f 79f
6:50am 2.5ft 9s 4s 16 20 mph 1015.4mb 80f 80f
5:50am 3ft 9s 4s 16 18 mph 1014.8mb 80f 80f
4:50am 3ft 4s 4s 18 20 mph 1014.5mb 80f 79f
3:50am 3ft 9s 4s 18 20 mph 1014.4mb 81f 79f